Time;durP1;ratioP1;P1;durP2;ratioP2;P2;SDS_P1;SDS_P2;PMS_P1;PMS_P2;Temp;Humidity;BMP_temperature;BMP_pressure;BME280_temperature;BME280_humidity;BME280_pressure;Samples;Min_cycle;Max_cycle;Signal;HPM_P1;HPM_P2
2021/12/11 00:01:46;;;;;;;10.90;4.40;;;;;;;-14.18;58.83;101722.34;4912393;29;20028;-80
2021/12/11 00:04:23;;;;;;;9.00;4.23;;;;;;;-14.26;58.69;101703.91;4893007;29;20134;-79
2021/12/11 00:06:52;;;;;;;9.30;4.07;;;;;;;-14.46;58.24;101680.59;4891951;29;20054;-80
2021/12/11 00:09:40;;;;;;;9.77;4.10;;;;;;;-14.18;58.15;101729.84;4892173;29;20077;-83
2021/12/11 00:12:30;;;;;;;18.70;5.57;;;;;;;-13.96;58.86;101730.81;4891476;29;20055;-81
2021/12/11 00:15:05;;;;;;;15.73;6.53;;;;;;;-13.88;59.01;101729.22;4892402;29;20051;-79
2021/12/11 00:17:33;;;;;;;16.20;6.73;;;;;;;-14.12;57.83;101729.69;4881273;29;20513;-82
2021/12/11 00:20:00;;;;;;;16.47;7.07;;;;;;;-14.32;58.08;101722.28;4897151;29;20040;-83
2021/12/11 00:22:29;;;;;;;17.13;6.97;;;;;;;-14.29;57.83;101745.16;4912890;29;20096;-81
2021/12/11 00:25:06;;;;;;;22.83;8.07;;;;;;;-14.54;58.44;101703.06;4897969;29;20060;-81
2021/12/11 00:27:33;;;;;;;17.80;6.67;;;;;;;-14.49;58.43;101712.75;4899513;29;20045;-82
2021/12/11 00:30:00;;;;;;;13.57;6.30;;;;;;;-14.59;57.65;101711.63;4904088;29;20051;-78
2021/12/11 00:32:32;;;;;;;12.30;5.67;;;;;;;-14.41;58.31;101744.56;4890208;29;20104;-81
2021/12/11 00:35:06;;;;;;;10.63;4.60;;;;;;;-14.25;58.67;101747.34;4904096;29;20139;-82
2021/12/11 00:37:32;;;;;;;8.60;3.87;;;;;;;-14.44;58.22;101714.19;4884995;29;20041;-83
2021/12/11 00:40:06;;;;;;;10.37;4.23;;;;;;;-14.29;57.80;101746.06;4897553;29;20048;-78
2021/12/11 00:42:34;;;;;;;14.87;4.30;;;;;;;-14.36;58.63;101737.66;4897493;29;20100;-80
2021/12/11 00:45:11;;;;;;;6.87;3.17;;;;;;;-14.15;58.16;101756.84;4896034;29;20055;-79
2021/12/11 00:47:46;;;;;;;9.33;3.97;;;;;;;-14.30;58.36;101741.78;4884093;29;20450;-82
2021/12/11 00:50:15;;;;;;;6.53;3.30;;;;;;;-14.33;58.19;101730.47;4901400;29;20053;-81
2021/12/11 00:52:46;;;;;;;8.17;3.97;;;;;;;-14.15;57.73;101745.25;4883344;29;20072;-78
2021/12/11 00:55:21;;;;;;;7.50;3.40;;;;;;;-14.12;58.06;101744.72;4895802;29;20052;-80
2021/12/11 00:57:48;;;;;;;5.83;2.67;;;;;;;-14.69;57.47;101676.25;4894706;29;20551;-81
2021/12/11 01:00:24;;;;;;;9.00;2.77;;;;;;;-14.33;58.34;101738.00;4896846;29;20170;-80
2021/12/11 01:02:53;;;;;;;9.70;3.57;;;;;;;-14.40;57.80;101722.25;4893431;29;20044;-81
2021/12/11 01:05:20;;;;;;;10.23;3.53;;;;;;;-14.65;57.90;101693.34;4901911;29;20072;-79
2021/12/11 01:07:46;;;;;;;7.60;3.03;;;;;;;-14.57;57.43;101727.72;4889411;29;20048;-82
2021/12/11 01:10:12;;;;;;;10.93;4.37;;;;;;;-14.68;58.05;101743.91;4879336;29;20513;-81
2021/12/11 01:12:47;;;;;;;13.50;4.97;;;;;;;-14.65;58.76;101715.84;4895122;29;20049;-82
2021/12/11 01:15:33;;;;;;;11.80;4.83;;;;;;;-14.66;58.73;101690.69;4879256;29;20072;-80
2021/12/11 01:20:53;;;;;;;12.00;4.43;;;;;;;-14.66;57.71;101733.19;4895467;29;20072;-79
2021/12/11 01:23:47;;;;;;;12.10;4.80;;;;;;;-14.77;59.03;101727.78;4879355;29;20055;-80
2021/12/11 01:26:17;;;;;;;11.33;3.87;;;;;;;-14.75;58.87;101741.38;4890048;29;20123;-81
2021/12/11 01:28:43;;;;;;;10.57;4.27;;;;;;;-14.82;58.22;101692.94;4860139;29;20049;-83
2021/12/11 01:31:12;;;;;;;13.17;5.37;;;;;;;-14.42;58.29;101737.78;4894087;29;20083;-81
2021/12/11 01:33:38;;;;;;;8.30;3.27;;;;;;;-14.67;58.35;101739.78;4894637;29;20076;-82
2021/12/11 01:36:06;;;;;;;10.07;4.27;;;;;;;-14.88;58.48;101718.09;4895180;29;20087;-82
2021/12/11 01:38:32;;;;;;;8.00;3.37;;;;;;;-14.92;57.95;101726.84;4894882;29;20055;-81
2021/12/11 01:41:07;;;;;;;11.23;3.50;;;;;;;-15.05;58.85;101693.53;4878966;29;20414;-82
2021/12/11 01:43:35;;;;;;;9.80;4.17;;;;;;;-15.13;58.23;101705.06;4911460;29;20059;-81
2021/12/11 01:46:03;;;;;;;10.10;3.93;;;;;;;-15.00;58.85;101732.47;4900095;29;20041;-81
2021/12/11 01:48:34;;;;;;;10.87;3.63;;;;;;;-14.87;58.93;101755.75;4917570;29;20044;-80
2021/12/11 01:51:10;;;;;;;6.17;2.93;;;;;;;-14.85;58.06;101763.47;4912748;29;20112;-81
2021/12/11 01:53:44;;;;;;;10.20;4.07;;;;;;;-15.20;57.61;101725.91;4904518;29;20040;-80
2021/12/11 01:56:16;;;;;;;11.70;3.77;;;;;;;-15.04;58.20;101760.28;4904162;29;20044;-80
2021/12/11 01:58:59;;;;;;;8.87;3.93;;;;;;;-15.19;58.83;101730.19;4899044;29;20123;-81
2021/12/11 02:01:46;;;;;;;10.37;3.80;;;;;;;-14.93;58.45;101774.09;4897844;29;20135;-81
2021/12/11 02:04:14;;;;;;;11.10;4.53;;;;;;;-15.04;59.42;101716.22;4894795;29;20088;-82
2021/12/11 02:06:44;;;;;;;10.43;4.67;;;;;;;-14.92;57.89;101750.91;4894625;29;20451;-81
2021/12/11 02:09:31;;;;;;;13.67;4.53;;;;;;;-15.00;58.41;101739.97;4878910;29;20040;-80
2021/12/11 02:12:13;;;;;;;12.10;4.67;;;;;;;-15.14;58.81;101700.78;4891840;29;20066;-79
2021/12/11 02:14:45;;;;;;;13.95;5.07;;;;;;;-15.09;58.23;101713.81;4872192;29;20048;-81
2021/12/11 02:17:29;;;;;;;9.47;4.37;;;;;;;-14.82;58.25;101736.34;4894483;29;20518;-84
2021/12/11 02:20:00;;;;;;;13.60;3.97;;;;;;;-14.89;56.98;101744.69;4893933;29;20575;-82
2021/12/11 02:22:31;;;;;;;12.18;4.15;;;;;;;-15.02;57.68;101767.28;4890461;29;20060;-83
2021/12/11 02:25:04;;;;;;;10.10;2.80;;;;;;;-15.09;57.74;101772.22;4893865;29;20112;-82
2021/12/11 02:27:43;;;;;;;12.50;4.20;;;;;;;-15.19;58.62;101735.19;4872549;29;20041;-84
2021/12/11 02:30:44;;;;;;;10.43;4.00;;;;;;;-15.09;57.75;101769.72;4893892;29;20392;-80
2021/12/11 02:33:44;;;;;;;9.03;3.97;;;;;;;-15.05;57.15;101776.88;4889292;29;20052;-80
2021/12/11 02:36:12;;;;;;;10.00;3.70;;;;;;;-15.06;57.76;101774.19;4893673;29;20101;-79
2021/12/11 02:38:59;;;;;;;9.20;3.50;;;;;;;-15.17;58.82;101777.84;4895571;29;20115;-83
2021/12/11 02:41:49;;;;;;;11.63;4.03;;;;;;;-15.06;59.51;101770.09;4894535;29;20044;-83
2021/12/11 02:44:55;;;;;;;10.43;4.23;;;;;;;-14.69;59.43;101773.75;4874359;29;20055;-79
2021/12/11 02:47:30;;;;;;;7.83;4.17;;;;;;;-14.65;58.90;101772.50;4864296;29;20059;-81
2021/12/11 02:50:09;;;;;;;10.00;3.40;;;;;;;-14.76;58.39;101773.69;4894334;29;20131;-79
2021/12/11 02:52:40;;;;;;;11.67;4.07;;;;;;;-14.89;57.83;101742.19;4893780;29;20125;-83
2021/12/11 02:55:06;;;;;;;7.80;3.67;;;;;;;-14.59;58.92;101771.63;4892692;29;20417;-82
2021/12/11 02:57:45;;;;;;;6.60;3.23;;;;;;;-14.75;57.54;101755.50;4894118;29;20482;-80
2021/12/11 03:00:26;;;;;;;11.47;4.07;;;;;;;-14.93;57.24;101745.03;4890216;29;20040;-83
2021/12/11 03:03:02;;;;;;;9.93;4.03;;;;;;;-14.96;58.41;101758.72;4894522;29;20502;-81
2021/12/11 03:05:39;;;;;;;10.27;4.70;;;;;;;-15.17;58.16;101716.28;4894281;29;20083;-83
2021/12/11 03:08:08;;;;;;;11.87;5.47;;;;;;;-15.11;58.63;101717.78;4893512;29;20040;-82
2021/12/11 03:10:35;;;;;;;10.10;5.30;;;;;;;-15.04;58.64;101735.28;4893021;29;20543;-81
2021/12/11 03:13:04;;;;;;;11.07;5.47;;;;;;;-15.33;57.59;101740.97;4888789;29;20048;-82
2021/12/11 03:15:30;;;;;;;16.27;4.83;;;;;;;-15.24;57.52;101753.69;4892628;29;20055;-82
2021/12/11 03:17:56;;;;;;;10.10;4.90;;;;;;;-15.28;57.65;101759.00;4895009;29;20088;-82
2021/12/11 03:20:23;;;;;;;13.63;4.00;;;;;;;-15.38;57.38;101764.47;4892966;29;20045;-80
2021/12/11 03:22:50;;;;;;;12.10;4.90;;;;;;;-15.62;59.16;101703.25;4892924;29;20115;-81
2021/12/11 03:25:25;;;;;;;10.33;5.17;;;;;;;-15.27;58.84;101704.97;4875995;29;20103;-81
2021/12/11 03:27:51;;;;;;;12.33;5.00;;;;;;;-14.71;59.52;101762.69;4892202;29;20479;-81
2021/12/11 03:30:24;;;;;;;9.00;4.37;;;;;;;-15.03;58.15;101724.59;4894083;29;20070;-80
2021/12/11 03:32:53;;;;;;;14.07;5.10;;;;;;;-14.60;58.78;101762.34;4893894;29;20052;-80
2021/12/11 03:35:20;;;;;;;11.73;4.57;;;;;;;-14.43;58.86;101771.91;4901576;29;20055;-79
2021/12/11 03:37:47;;;;;;;12.83;5.13;;;;;;;-14.61;58.83;101765.53;4892602;29;20072;-81
2021/12/11 03:40:14;;;;;;;14.10;4.93;;;;;;;-14.88;56.60;101768.09;4893084;29;20049;-79
2021/12/11 03:42:42;;;;;;;11.83;4.97;;;;;;;-15.09;57.71;101768.78;4892763;29;20048;-81
2021/12/11 03:45:31;;;;;;;12.70;5.13;;;;;;;-15.08;58.40;101764.00;4892199;29;20254;-80
2021/12/11 03:48:04;;;;;;;8.50;4.70;;;;;;;-15.10;58.51;101779.50;4877109;29;20112;-81
2021/12/11 03:50:30;;;;;;;9.37;4.83;;;;;;;-15.40;57.57;101755.88;4893476;29;20387;-80
2021/12/11 03:52:57;;;;;;;10.00;4.00;;;;;;;-15.46;58.15;101757.63;4893496;29;20045;-81
2021/12/11 03:55:28;;;;;;;11.07;5.20;;;;;;;-15.17;58.94;101781.25;4891590;29;20044;-81
2021/12/11 03:58:00;;;;;;;7.68;3.97;;;;;;;-14.94;58.75;101785.72;4893177;29;20044;-80
2021/12/11 04:00:43;;;;;;;12.88;4.40;;;;;;;-14.81;59.08;101759.72;4893209;29;20047;-81
2021/12/11 04:03:13;;;;;;;15.77;5.70;;;;;;;-14.61;58.47;101770.53;4891599;29;20633;-81
2021/12/11 04:05:41;;;;;;;12.43;5.23;;;;;;;-14.54;58.59;101774.69;4892128;29;20044;-82
2021/12/11 04:08:15;;;;;;;11.93;4.63;;;;;;;-14.49;58.96;101753.66;4906850;29;20079;-80
2021/12/11 04:10:41;;;;;;;18.67;6.07;;;;;;;-14.49;58.96;101728.63;4892276;29;20499;-80
2021/12/11 04:13:09;;;;;;;13.63;5.23;;;;;;;-14.40;58.60;101732.28;4891650;29;20080;-79
2021/12/11 04:15:38;;;;;;;11.10;4.87;;;;;;;-14.69;57.67;101717.13;4867182;29;20072;-81
2021/12/11 04:18:06;;;;;;;10.60;4.60;;;;;;;-14.98;56.44;101731.06;4904993;29;20131;-80
2021/12/11 04:20:36;;;;;;;11.77;4.23;;;;;;;-15.28;57.54;101721.53;4892200;29;20139;-81
2021/12/11 04:23:03;;;;;;;13.10;5.07;;;;;;;-15.33;58.67;101722.56;4876687;29;20040;-79
2021/12/11 04:25:29;;;;;;;11.53;4.47;;;;;;;-15.31;56.86;101733.66;4895735;29;20104;-79
2021/12/11 04:27:56;;;;;;;10.63;4.53;;;;;;;-15.43;57.70;101727.13;4916163;29;20466;-80
2021/12/11 04:30:23;;;;;;;16.90;4.93;;;;;;;-15.47;58.13;101728.38;4884798;29;20076;-80
2021/12/11 04:32:52;;;;;;;12.33;4.37;;;;;;;-15.53;58.23;101720.97;4901321;29;20075;-82
2021/12/11 04:35:18;;;;;;;8.90;4.83;;;;;;;-15.32;59.54;101742.75;4885340;29;20138;-81
2021/12/11 04:37:45;;;;;;;15.00;4.70;;;;;;;-15.26;58.42;101751.72;4910244;29;20643;-81
2021/12/11 04:40:20;;;;;;;11.50;4.73;;;;;;;-15.17;58.67;101745.38;4910335;29;20064;-81
2021/12/11 04:43:12;;;;;;;18.07;5.73;;;;;;;-15.01;58.06;101745.66;4902531;29;20041;-81
2021/12/11 04:45:53;;;;;;;19.45;6.55;;;;;;;-14.84;58.79;101745.25;4903812;29;20079;-81
2021/12/11 05:11:20;;;;;;;16.90;6.50;;;;;;;-14.54;59.03;101757.19;4901109;29;20040;-82
2021/12/11 05:13:54;;;;;;;18.43;6.47;;;;;;;-14.30;58.87;101749.28;4910162;29;20518;-81
2021/12/11 05:16:24;;;;;;;12.53;4.80;;;;;;;-15.25;57.79;101599.53;4896403;29;20048;-80
2021/12/11 05:18:56;;;;;;;15.07;6.00;;;;;;;-15.33;58.45;101600.19;4894451;29;20507;-81
2021/12/11 05:21:28;;;;;;;15.20;4.90;;;;;;;-14.33;58.62;101760.50;4893803;29;20040;-81
2021/12/11 05:23:54;;;;;;;13.83;5.43;;;;;;;-14.20;58.50;101773.81;4895826;29;20550;-81
2021/12/11 05:26:22;;;;;;;13.00;5.60;;;;;;;-14.16;58.85;101742.53;4894849;29;20150;-82
2021/12/11 05:28:51;;;;;;;14.97;6.23;;;;;;;-13.97;58.93;101726.50;4893861;29;20688;-82
2021/12/11 05:31:27;;;;;;;12.40;5.60;;;;;;;-13.90;58.31;101763.22;4907674;29;20068;-83
2021/12/11 05:33:53;;;;;;;13.10;4.93;;;;;;;-13.82;58.00;101761.63;4895931;29;20056;-81
2021/12/11 05:36:22;;;;;;;17.50;6.27;;;;;;;-13.80;58.08;101766.09;4910038;29;20040;-81
2021/12/11 05:39:34;;;;;;;16.10;5.67;;;;;;;-13.71;57.92;101758.78;4884282;29;20059;-82
2021/12/11 05:42:10;;;;;;;18.37;6.63;;;;;;;-14.29;57.90;101668.53;4893437;29;20493;-80
2021/12/11 05:44:41;;;;;;;15.53;6.53;;;;;;;-14.08;56.14;101757.75;4894516;29;20100;-80
2021/12/11 05:47:22;;;;;;;20.53;7.73;;;;;;;-14.13;57.57;101773.84;4893379;29;20298;-80
2021/12/11 05:49:51;;;;;;;22.57;9.60;;;;;;;-14.66;57.58;101644.06;4898609;29;20052;-81
2021/12/11 05:52:17;;;;;;;18.00;7.60;;;;;;;-14.05;56.98;101764.75;4896939;29;20546;-82
2021/12/11 05:54:47;;;;;;;14.97;6.00;;;;;;;-14.14;57.89;101757.06;4894113;29;20064;-81
2021/12/11 05:57:16;;;;;;;15.93;5.63;;;;;;;-14.17;56.79;101763.25;4894694;29;20052;-80
2021/12/11 05:59:53;;;;;;;12.50;6.33;;;;;;;-14.87;57.87;101605.78;4893805;29;20541;-78
2021/12/11 06:02:29;;;;;;;15.30;6.83;;;;;;;-14.08;57.97;101721.84;4878457;29;20036;-79
2021/12/11 06:04:58;;;;;;;16.33;6.40;;;;;;;-13.89;57.38;101762.47;4894155;29;20044;-80
2021/12/11 06:07:44;;;;;;;15.40;6.23;;;;;;;-14.13;57.78;101708.78;4865551;29;20135;-80
2021/12/11 06:10:17;;;;;;;13.17;6.57;;;;;;;-13.85;56.95;101743.72;4895347;29;20148;-79
2021/12/11 06:12:45;;;;;;;16.00;6.50;;;;;;;-13.75;56.52;101743.22;4910452;29;20044;-81
2021/12/11 06:15:12;;;;;;;14.37;6.57;;;;;;;-14.04;57.47;101730.59;4896772;29;20140;-80
2021/12/11 06:17:41;;;;;;;15.67;7.13;;;;;;;-14.01;57.32;101746.88;4909837;29;20071;-79
2021/12/11 06:20:11;;;;;;;15.30;6.80;;;;;;;-13.78;57.63;101751.25;4895950;29;20048;-79
2021/12/11 06:22:38;;;;;;;13.83;5.97;;;;;;;-13.81;56.74;101755.91;4895495;29;20048;-79
2021/12/11 06:25:09;;;;;;;15.07;5.97;;;;;;;-13.88;57.10;101738.34;4895339;29;20554;-79
2021/12/11 06:27:35;;;;;;;13.77;5.70;;;;;;;-13.83;57.23;101752.31;4894970;29;20055;-81
2021/12/11 06:30:29;;;;;;;15.43;6.17;;;;;;;-14.01;57.94;101686.81;4894110;29;20044;-80
2021/12/11 06:33:11;;;;;;;12.53;5.70;;;;;;;-13.97;56.00;101721.50;4894081;29;20052;-80
2021/12/11 06:35:59;;;;;;;20.60;7.27;;;;;;;-13.59;56.76;101755.97;4894931;29;20127;-81
2021/12/11 06:41:36;;;;;;;18.17;6.30;;;;;;;-14.29;57.15;101527.50;4887923;29;20273;-81
2021/12/11 06:44:09;;;;;;;12.30;5.47;;;;;;;-14.15;56.10;101530.03;4897706;29;20044;-81
2021/12/11 06:46:40;;;;;;;13.93;6.50;;;;;;;-12.57;57.52;101762.72;4909284;29;20092;-80
2021/12/11 06:49:12;;;;;;;14.23;5.23;;;;;;;-12.37;56.49;101762.50;4893281;29;20040;-81
2021/12/11 06:51:38;;;;;;;14.23;6.27;;;;;;;-12.43;56.86;101749.25;4895585;29;20721;-81
2021/12/11 06:54:09;;;;;;;14.83;6.43;;;;;;;-12.09;56.39;101742.13;4896149;29;20095;-79
2021/12/11 06:56:52;;;;;;;16.13;6.80;;;;;;;-12.46;56.64;101671.97;4893429;29;20060;-79
2021/12/11 06:59:18;;;;;;;15.63;7.17;;;;;;;-12.28;56.14;101648.06;4880278;29;20512;-80
2021/12/11 07:01:53;;;;;;;16.33;7.30;;;;;;;-12.63;54.30;101624.94;4893828;29;20036;-80
2021/12/11 07:04:24;;;;;;;18.67;7.60;;;;;;;-11.90;55.11;101743.44;4911176;29;20064;-82
2021/12/11 07:06:54;;;;;;;20.92;8.70;;;;;;;-11.71;54.88;101750.50;4896685;29;20541;-81
2021/12/11 07:09:28;;;;;;;24.73;10.87;;;;;;;-12.26;55.74;101635.69;4892223;29;20051;-81
2021/12/11 07:11:56;;;;;;;24.23;9.70;;;;;;;-11.03;56.90;101742.84;4895087;29;20562;-81
2021/12/11 07:14:26;;;;;;;18.47;7.90;;;;;;;-10.62;55.06;101707.78;4898215;29;20417;-81
2021/12/11 07:16:53;;;;;;;20.60;9.13;;;;;;;-9.87;55.96;101729.84;4905922;29;20050;-81
2021/12/11 07:19:22;;;;;;;28.73;11.20;;;;;;;-9.38;55.63;101715.44;4888469;29;20487;-82
2021/12/11 07:21:50;;;;;;;25.40;11.03;;;;;;;-9.01;53.49;101739.34;4895946;29;20618;-80
2021/12/11 07:24:21;;;;;;;24.00;10.83;;;;;;;-9.33;52.25;101719.34;4895365;29;20048;-83
2021/12/11 07:26:51;;;;;;;25.40;11.37;;;;;;;-9.29;55.52;101700.34;4880826;29;20131;-79
2021/12/11 07:29:19;;;;;;;20.47;8.73;;;;;;;-8.90;52.92;101750.53;4901362;29;20036;-81
2021/12/11 07:31:48;;;;;;;18.03;8.57;;;;;;;-9.25;52.73;101727.69;4906917;29;20095;-80
2021/12/11 07:34:15;;;;;;;21.43;10.10;;;;;;;-9.37;54.20;101707.16;4907403;29;20089;-80
2021/12/11 07:36:42;;;;;;;19.50;9.80;;;;;;;-9.10;52.76;101753.56;4901119;29;20055;-80
2021/12/11 07:39:12;;;;;;;22.37;10.57;;;;;;;-9.50;53.84;101767.16;4896198;29;20040;-80
2021/12/11 07:41:44;;;;;;;27.47;9.97;;;;;;;-9.70;52.56;101765.97;4907094;29;20192;-79
2021/12/11 07:44:13;;;;;;;25.23;9.33;;;;;;;-9.65;52.83;101756.38;4896342;29;20053;-84
2021/12/11 07:46:39;;;;;;;23.30;9.30;;;;;;;-9.38;53.10;101749.13;4894350;29;20052;-83
2021/12/11 07:49:12;;;;;;;19.07;9.10;;;;;;;-8.85;53.07;101758.56;4897738;29;20044;-81
2021/12/11 07:52:40;;;;;;;22.77;8.57;;;;;;;-9.79;53.23;101598.72;4897313;29;20052;-81
2021/12/11 07:55:27;;;;;;;18.15;7.90;;;;;;;-7.75;54.34;101749.91;4867164;29;20052;-82
2021/12/11 07:57:53;;;;;;;18.00;7.68;;;;;;;-7.26;52.67;101748.59;4862543;29;20231;-83
2021/12/11 08:00:24;;;;;;;24.42;9.23;;;;;;;-7.70;51.77;101725.06;4893147;29;20539;-81
2021/12/11 08:02:51;;;;;;;19.27;8.32;;;;;;;-8.05;51.50;101712.44;4884482;29;20260;-83
2021/12/11 08:05:17;;;;;;;22.08;9.45;;;;;;;-7.54;53.03;101688.56;4892129;29;20044;-81
2021/12/11 08:07:43;;;;;;;22.60;10.07;;;;;;;-6.42;52.65;101737.66;4876794;29;20064;-82
2021/12/11 08:10:15;;;;;;;20.98;8.88;;;;;;;-5.60;51.49;101704.22;4894156;29;20044;-80
2021/12/11 08:12:41;;;;;;;23.80;8.85;;;;;;;-5.93;50.65;101647.28;4893530;29;20044;-84
2021/12/11 08:15:10;;;;;;;19.70;7.65;;;;;;;-5.34;49.14;101738.56;4893614;29;20127;-81
2021/12/11 08:17:39;;;;;;;19.40;8.07;;;;;;;-6.25;48.72;101706.19;4892738;29;20071;-83
2021/12/11 08:20:08;;;;;;;18.08;8.93;;;;;;;-5.63;49.98;101729.34;4890955;29;20040;-81
2021/12/11 08:22:34;;;;;;;18.70;8.43;;;;;;;-5.08;50.81;101717.06;4893613;29;20064;-80
2021/12/11 08:25:00;;;;;;;18.13;7.75;;;;;;;-4.69;50.44;101681.44;4894307;29;20048;-81
2021/12/11 08:27:27;;;;;;;16.70;7.93;;;;;;;-4.18;48.96;101691.44;4893471;29;20063;-80
2021/12/11 08:29:54;;;;;;;12.85;7.07;;;;;;;-5.00;46.99;101650.06;4891850;29;20140;-80
2021/12/11 08:32:25;;;;;;;16.00;7.75;;;;;;;-4.56;47.53;101721.47;4891531;29;20056;-80
2021/12/11 08:34:52;;;;;;;18.23;8.93;;;;;;;-4.54;47.56;101678.38;4907786;29;20045;-80
2021/12/11 08:37:21;;;;;;;13.55;6.50;;;;;;;-4.24;45.72;101705.41;4893599;29;20068;-80
2021/12/11 08:39:47;;;;;;;14.98;7.93;;;;;;;-4.11;46.08;101716.59;4889471;29;20136;-80
2021/12/11 08:42:18;;;;;;;14.07;6.90;;;;;;;-4.60;46.21;101678.75;4894245;29;20155;-82
2021/12/11 08:44:50;;;;;;;15.13;7.90;;;;;;;-3.97;46.68;101712.63;4881167;29;20124;-81
2021/12/11 08:47:20;;;;;;;18.30;8.27;;;;;;;-2.98;47.96;101688.88;4880156;29;20043;-80
2021/12/11 08:49:46;;;;;;;16.88;8.00;;;;;;;-2.43;44.27;101690.47;4897738;29;20037;-82
2021/12/11 08:52:18;;;;;;;20.83;8.80;;;;;;;-1.63;46.68;101683.38;4897444;29;20044;-82
2021/12/11 08:54:45;;;;;;;15.88;7.85;;;;;;;-1.90;44.22;101686.63;4914595;29;20044;-83
2021/12/11 08:57:15;;;;;;;18.10;8.60;;;;;;;-1.56;46.45;101575.78;4904562;29;20044;-82
2021/12/11 08:59:49;;;;;;;16.48;7.80;;;;;;;-0.97;42.05;101659.81;4909987;29;20541;-79
2021/12/11 09:02:24;;;;;;;16.23;8.27;;;;;;;-0.72;42.95;101664.03;4885727;29;20071;-81
2021/12/11 09:05:05;;;;;;;15.02;8.32;;;;;;;0.31;43.00;101671.47;4870988;29;20041;-81
2021/12/11 09:07:54;;;;;;;16.70;8.35;;;;;;;1.90;43.05;101650.88;4884344;29;20048;-80
2021/12/11 09:10:30;;;;;;;15.15;8.00;;;;;;;3.07;41.37;101624.50;4899221;29;20048;-80
2021/12/11 09:13:03;;;;;;;25.35;16.10;;;;;;;4.04;38.25;101607.75;4901899;29;20055;-80
2021/12/11 09:15:35;;;;;;;17.38;10.27;;;;;;;4.33;37.09;101636.53;4903602;29;20515;-79
2021/12/11 09:18:13;;;;;;;16.20;8.93;;;;;;;3.13;36.90;101655.69;4892687;29;20107;-81
2021/12/11 09:20:50;;;;;;;16.73;9.98;;;;;;;4.51;37.81;101651.97;4904387;29;20051;-80
2021/12/11 09:23:27;;;;;;;15.02;8.77;;;;;;;4.35;35.91;101622.03;4900040;29;20048;-81
2021/12/11 09:25:56;;;;;;;24.50;15.75;;;;;;;4.66;34.83;101649.22;4903050;29;20040;-80
2021/12/11 09:28:27;;;;;;;15.07;8.15;;;;;;;4.73;32.36;101647.78;4899558;29;20080;-80
2021/12/11 09:31:06;;;;;;;16.00;9.35;;;;;;;3.82;32.32;101622.19;4863687;29;20088;-79
2021/12/11 09:33:38;;;;;;;14.27;8.57;;;;;;;3.53;31.36;101639.69;4901399;29;20085;-81
2021/12/11 09:36:10;;;;;;;15.20;8.70;;;;;;;3.59;34.16;101623.63;4895456;29;20135;-81
2021/12/11 09:38:41;;;;;;;14.85;8.85;;;;;;;4.50;33.61;101624.44;4896533;29;20044;-81
2021/12/11 09:41:21;;;;;;;15.07;8.83;;;;;;;5.64;32.82;101630.97;4891453;29;20143;-79
2021/12/11 09:44:01;;;;;;;14.45;8.75;;;;;;;5.30;29.02;101608.94;4864738;29;20049;-81
2021/12/11 09:46:38;;;;;;;16.15;8.82;;;;;;;4.88;31.34;101594.28;4894916;29;20060;-81
2021/12/11 09:49:06;;;;;;;13.35;8.32;;;;;;;5.07;30.19;101608.88;4883302;29;20056;-80
2021/12/11 09:51:37;;;;;;;15.55;8.70;;;;;;;4.25;30.71;101630.16;4899375;29;20044;-81
2021/12/11 09:54:08;;;;;;;15.55;8.95;;;;;;;3.98;30.67;101631.50;4879171;29;20044;-81
2021/12/11 09:56:40;;;;;;;15.23;8.95;;;;;;;4.20;28.65;101627.34;4895733;29;20063;-81
2021/12/11 09:59:09;;;;;;;12.68;7.97;;;;;;;3.05;29.80;101600.38;4865366;29;20172;-83
2021/12/11 10:01:42;;;;;;;13.40;8.40;;;;;;;2.62;31.02;101635.06;4889422;29;20060;-81
2021/12/11 10:04:34;;;;;;;13.50;7.85;;;;;;;0.57;30.20;101595.34;4883061;29;20055;-80
2021/12/11 10:10:02;;;;;;;12.88;7.40;;;;;;;-2.12;31.84;101634.03;4904374;29;20075;-80
2021/12/11 10:12:35;;;;;;;16.50;8.20;;;;;;;-3.30;31.17;101655.06;4906196;29;20051;-82
2021/12/11 10:15:26;;;;;;;12.93;7.68;;;;;;;-4.08;33.18;101660.88;4917647;29;20096;-79
2021/12/11 10:18:04;;;;;;;14.52;7.65;;;;;;;-4.69;34.38;101638.25;4902545;29;20079;-82
2021/12/11 10:20:32;;;;;;;15.95;7.85;;;;;;;-5.00;33.77;101653.47;4898197;29;20055;-81
2021/12/11 10:23:06;;;;;;;15.18;7.45;;;;;;;-5.80;34.60;101626.41;4896957;29;20047;-83
2021/12/11 10:26:18;;;;;;;17.20;8.18;;;;;;;-6.57;35.15;101580.94;4895720;29;20036;-82
2021/12/11 10:29:28;;;;;;;20.45;10.35;;;;;;;-6.91;35.25;101660.59;4893594;29;20514;-85
2021/12/11 10:32:06;;;;;;;16.48;7.85;;;;;;;-7.47;35.49;101605.81;4881013;29;20471;-84
2021/12/11 10:34:34;;;;;;;18.70;8.65;;;;;;;-7.48;35.55;101634.38;4889534;29;20112;-83
2021/12/11 10:37:15;;;;;;;16.10;7.50;;;;;;;-8.05;36.86;101571.81;4894913;29;20164;-84
2021/12/11 10:39:45;;;;;;;18.65;8.00;;;;;;;-7.75;37.21;101626.03;4893623;29;20049;-84
2021/12/11 10:42:11;;;;;;;17.88;7.68;;;;;;;-7.87;37.29;101623.22;4892117;29;20265;-82
2021/12/11 10:44:44;;;;;;;17.85;8.02;;;;;;;-7.93;37.62;101670.66;4893400;29;20041;-78
2021/12/11 10:47:25;;;;;;;17.85;7.47;;;;;;;-8.72;37.58;101543.59;4890141;29;20043;-85
2021/12/11 10:49:52;;;;;;;18.80;8.17;;;;;;;-8.33;38.04;101664.31;4893985;29;20040;-81
2021/12/11 10:52:30;;;;;;;19.60;7.13;;;;;;;-8.53;38.45;101630.47;4894567;29;20080;-83
2021/12/11 10:55:01;;;;;;;14.73;7.40;;;;;;;-8.82;37.77;101597.31;4893822;29;20044;-80
2021/12/11 10:57:34;;;;;;;17.73;7.70;;;;;;;-8.90;38.51;101629.38;4891045;29;20041;-80
2021/12/11 11:00:06;;;;;;;22.87;8.33;;;;;;;-8.79;39.25;101661.63;4879912;29;20047;-82
2021/12/11 11:02:32;;;;;;;19.27;8.77;;;;;;;-9.05;39.35;101637.97;4895242;29;20041;-82
2021/12/11 11:05:06;;;;;;;19.17;8.43;;;;;;;-9.08;39.35;101656.22;4855623;29;20039;-81
2021/12/11 11:07:34;;;;;;;21.10;9.37;;;;;;;-8.93;40.40;101665.31;4892771;29;20152;-83
2021/12/11 11:10:26;;;;;;;18.27;7.90;;;;;;;-9.45;39.91;101595.44;4876711;29;20056;-85
2021/12/11 11:13:01;;;;;;;15.53;7.03;;;;;;;-9.58;40.02;101628.59;4895736;29;20076;-83
2021/12/11 11:15:31;;;;;;;15.37;6.53;;;;;;;-9.69;40.86;101649.28;4882485;29;20055;-86
2021/12/11 11:17:57;;;;;;;14.20;6.47;;;;;;;-10.16;40.54;101605.91;4895704;29;20072;-83
2021/12/11 11:20:35;;;;;;;15.40;6.03;;;;;;;-10.23;40.17;101628.66;4897743;29;20128;-76
2021/12/11 11:23:01;;;;;;;15.63;6.33;;;;;;;-10.10;41.41;101656.03;4896844;29;20418;-77
2021/12/11 11:25:33;;;;;;;14.63;6.97;;;;;;;-10.11;41.58;101662.69;4894334;29;21558;-78
2021/12/11 11:28:05;;;;;;;16.40;6.63;;;;;;;-10.35;41.30;101636.75;4895470;29;20394;-80
2021/12/11 11:30:38;;;;;;;13.47;6.70;;;;;;;-10.45;41.44;101666.75;4876196;29;20052;-76
2021/12/11 11:33:07;;;;;;;16.43;7.10;;;;;;;-10.72;42.52;101648.03;4893351;29;20064;-77
2021/12/11 11:35:42;;;;;;;16.50;6.93;;;;;;;-10.81;42.81;101654.59;4895439;29;20040;-79
2021/12/11 11:38:21;;;;;;;18.17;7.73;;;;;;;-10.55;44.22;101647.28;4894854;29;20040;-78
2021/12/11 11:40:50;;;;;;;16.30;6.60;;;;;;;-10.68;42.43;101642.56;4894340;29;20068;-76
2021/12/11 11:43:19;;;;;;;19.80;8.32;;;;;;;-10.95;43.46;101621.31;4891279;29;20048;-78
2021/12/11 11:45:52;;;;;;;18.30;7.63;;;;;;;-10.74;44.33;101621.81;4893829;29;20605;-75
2021/12/11 11:49:11;;;;;;;19.70;7.63;;;;;;;-10.54;44.05;101620.50;4891708;29;20207;-80
2021/12/11 11:51:43;;;;;;;23.73;8.47;;;;;;;-10.51;44.03;101634.28;4888969;29;20124;-77
2021/12/11 11:54:11;;;;;;;25.77;8.47;;;;;;;-10.86;44.07;101617.97;4891787;29;20131;-79
2021/12/11 11:56:41;;;;;;;15.73;6.07;;;;;;;-11.11;44.59;101626.34;4894189;29;20044;-81
2021/12/11 11:59:14;;;;;;;16.90;7.10;;;;;;;-11.12;44.47;101641.25;4885361;29;20068;-77
2021/12/11 12:01:44;;;;;;;20.83;6.90;;;;;;;-11.29;45.27;101627.75;4893623;29;20063;-77
2021/12/11 12:04:16;;;;;;;16.87;6.83;;;;;;;-11.13;45.71;101630.31;4872801;29;21026;-76
2021/12/11 12:06:48;;;;;;;18.13;6.60;;;;;;;-11.11;45.57;101631.38;4906927;29;20055;-79
2021/12/11 12:09:16;;;;;;;18.55;8.32;;;;;;;-11.35;46.13;101617.94;4887179;29;20045;-77
2021/12/11 12:11:42;;;;;;;17.17;6.87;;;;;;;-11.29;45.93;101637.81;4891459;29;20048;-76
2021/12/11 12:14:14;;;;;;;21.87;8.50;;;;;;;-11.50;46.70;101628.88;4899121;29;20041;-77